Terminal Aerodrome Forecast
Issued by NWS Cleveland, OH

Home | Current Version | Previous Version | Text Only | Print | Product List | Glossary Off
Versions: 1 2 3 4 5 6 7 8 9 10 11 12 13

000
FTUS41 KCLE 261431 AAA
TAFERI
TAF AMD
KERI 261431Z 2615/2712 33006KT 5SM BR SCT015
     FM261700 33010KT P6SM SCT030 BKN250
     FM270100 VRB03KT P6SM SKC=

USA.gov is the U.S. government's official web portal to all federal, state and local government web resources and services.